createdAt,value
2018-07-21T00:00:21.277Z,29.80
2018-07-21T00:02:49.622Z,30.00
2018-07-21T00:05:18.094Z,30.10
2018-07-21T00:07:46.491Z,30.40
2018-07-21T00:10:15.111Z,30.90
2018-07-21T00:12:43.446Z,30.70
2018-07-21T00:15:11.955Z,31.00
2018-07-21T00:17:40.525Z,31.30
2018-07-21T00:20:15.387Z,31.60
2018-07-21T00:22:43.729Z,32.20
2018-07-21T00:25:12.116Z,32.70
2018-07-21T00:27:40.491Z,32.30
2018-07-21T00:30:09.071Z,32.90
2018-07-21T00:32:37.485Z,33.20
2018-07-21T00:35:05.982Z,34.10
2018-07-21T00:37:34.321Z,33.30
2018-07-21T00:40:02.882Z,33.60
2018-07-21T00:42:31.313Z,33.70
2018-07-21T00:47:27.982Z,34.10
2018-07-21T00:49:56.384Z,34.30
2018-07-21T00:52:24.908Z,34.50
2018-07-21T00:54:53.403Z,34.60
2018-07-21T00:57:21.857Z,34.30
2018-07-21T00:59:50.130Z,35.10
2018-07-21T01:02:18.643Z,35.00
2018-07-21T01:04:47.319Z,35.30
2018-07-21T01:07:15.792Z,35.40
2018-07-21T01:09:44.172Z,35.50
2018-07-21T01:12:16.112Z,35.90
2018-07-21T01:14:44.394Z,35.80
2018-07-21T01:17:12.664Z,36.40
2018-07-21T01:19:41.080Z,36.00
2018-07-21T01:22:09.395Z,36.60
2018-07-21T01:24:37.725Z,36.30
2018-07-21T01:27:06.183Z,37.40
2018-07-21T01:29:34.524Z,36.60
2018-07-21T01:32:02.856Z,36.70
2018-07-21T01:34:31.684Z,37.00
2018-07-21T01:37:00.599Z,36.80
2018-07-21T01:39:28.906Z,36.90
2018-07-21T01:41:57.239Z,36.70
2018-07-21T01:44:25.563Z,37.20
2018-07-21T01:46:53.875Z,37.40
2018-07-21T01:49:22.169Z,37.20
2018-07-21T01:51:50.466Z,37.40
2018-07-21T01:54:18.763Z,37.30
2018-07-21T01:56:47.092Z,37.20
2018-07-21T01:59:15.350Z,37.50
2018-07-21T02:01:43.642Z,37.30
2018-07-21T02:04:11.954Z,37.50
2018-07-21T02:06:40.249Z,37.70
2018-07-21T02:09:09.975Z,37.80
2018-07-21T02:11:38.385Z,37.90
2018-07-21T02:14:06.743Z,37.90
2018-07-21T02:19:03.749Z,38.60
2018-07-21T02:21:32.279Z,38.20
2018-07-21T02:24:00.583Z,38.20
2018-07-21T02:26:28.987Z,39.00
2018-07-21T02:28:57.246Z,38.90
2018-07-21T02:31:25.611Z,38.80
2018-07-21T02:33:53.956Z,38.60
2018-07-21T02:36:22.364Z,38.60
2018-07-21T02:38:51.001Z,39.20
2018-07-21T02:41:19.328Z,38.90
2018-07-21T02:43:47.589Z,40.00
2018-07-21T02:46:15.880Z,39.40
2018-07-21T02:48:44.215Z,39.30
2018-07-21T02:51:12.543Z,39.80
2018-07-21T02:53:40.805Z,39.30
2018-07-21T02:56:09.135Z,39.40
2018-07-21T02:58:37.460Z,39.70
2018-07-21T03:01:05.837Z,40.40
2018-07-21T03:03:34.305Z,39.90
2018-07-21T03:06:02.735Z,40.00
2018-07-21T03:08:31.092Z,40.20
2018-07-21T03:10:59.589Z,40.50
2018-07-21T03:13:27.870Z,40.60
2018-07-21T03:15:56.222Z,40.50
2018-07-21T03:18:24.537Z,41.10
2018-07-21T03:20:52.911Z,41.10
2018-07-21T03:23:21.292Z,40.80
2018-07-21T03:25:49.605Z,41.30
2018-07-21T03:28:17.949Z,41.20
2018-07-21T03:30:46.312Z,41.20
2018-07-21T03:33:14.546Z,41.50
2018-07-21T03:35:42.903Z,41.80
2018-07-21T03:38:11.187Z,41.30
2018-07-21T03:40:39.481Z,41.40
2018-07-21T03:43:14.283Z,41.60
2018-07-21T03:45:42.551Z,41.40
2018-07-21T03:48:10.890Z,41.80
2018-07-21T03:50:39.190Z,41.50
2018-07-21T03:53:07.467Z,41.90
2018-07-21T03:55:35.942Z,41.70
2018-07-21T03:58:04.305Z,41.60
2018-07-21T04:00:32.668Z,41.60
2018-07-21T04:03:01.017Z,41.50
2018-07-21T04:05:29.360Z,41.80
2018-07-21T04:07:57.712Z,41.70
2018-07-21T04:10:26.003Z,41.40
2018-07-21T04:12:54.842Z,41.50
2018-07-21T04:15:23.158Z,41.50
2018-07-21T04:17:51.451Z,41.40
2018-07-21T04:20:19.793Z,41.30
2018-07-21T04:22:48.099Z,41.30
2018-07-21T04:25:16.383Z,41.50
2018-07-21T04:27:44.710Z,41.80
2018-07-21T04:30:13.079Z,41.80
2018-07-21T04:32:41.392Z,41.60
2018-07-21T04:35:09.902Z,42.30
2018-07-21T04:37:38.442Z,41.50
2018-07-21T04:40:06.949Z,41.60
2018-07-21T04:42:35.452Z,41.70
2018-07-21T04:45:03.997Z,41.80
2018-07-21T04:47:32.418Z,41.30
2018-07-21T04:50:00.895Z,41.80
2018-07-21T04:52:29.252Z,42.00
2018-07-21T04:54:57.554Z,41.90
2018-07-21T04:57:25.925Z,41.70
2018-07-21T04:59:54.271Z,41.90
2018-07-21T05:02:22.546Z,41.80
2018-07-21T05:04:50.921Z,42.00
2018-07-21T05:07:19.388Z,41.90
2018-07-21T05:09:47.726Z,42.00
2018-07-21T05:12:16.122Z,41.70
2018-07-21T05:14:44.469Z,41.70
2018-07-21T05:17:12.766Z,41.90
2018-07-21T05:19:41.229Z,41.80
2018-07-21T05:22:09.547Z,41.90
2018-07-21T05:24:37.906Z,42.10
2018-07-21T05:27:06.519Z,42.00
2018-07-21T05:29:34.958Z,42.10
2018-07-21T05:32:03.333Z,41.80
2018-07-21T05:34:31.955Z,42.10
2018-07-21T05:37:00.294Z,41.90
2018-07-21T05:39:28.619Z,41.80
2018-07-21T05:41:57.037Z,42.10
2018-07-21T05:44:25.447Z,42.10
2018-07-21T05:46:53.799Z,42.60
2018-07-21T05:49:22.095Z,41.90
2018-07-21T05:51:50.383Z,41.90
2018-07-21T05:54:18.746Z,41.90
2018-07-21T05:56:47.090Z,41.90
2018-07-21T05:59:15.388Z,42.00
2018-07-21T06:01:43.933Z,41.70
2018-07-21T06:04:12.261Z,41.80
2018-07-21T06:06:40.567Z,41.60
2018-07-21T06:09:10.391Z,41.70
2018-07-21T06:11:38.898Z,41.60
2018-07-21T06:14:07.335Z,41.60
2018-07-21T06:16:35.902Z,41.40
2018-07-21T06:19:04.447Z,41.40
2018-07-21T06:21:32.763Z,41.40
2018-07-21T06:24:01.406Z,41.40
2018-07-21T06:26:30.174Z,41.30
2018-07-21T06:31:26.551Z,41.30
2018-07-21T06:33:54.881Z,41.20
2018-07-21T06:36:23.643Z,41.20
2018-07-21T06:38:51.982Z,41.30
2018-07-21T06:41:20.325Z,41.20
2018-07-21T06:43:48.654Z,41.30
2018-07-21T06:46:17.106Z,41.10
2018-07-21T06:48:45.482Z,41.30
2018-07-21T06:51:13.787Z,41.70
2018-07-21T06:53:42.155Z,40.40
2018-07-21T06:58:38.710Z,41.50
2018-07-21T07:01:07.399Z,41.00
2018-07-21T07:03:35.879Z,40.90
2018-07-21T07:06:04.301Z,40.70
2018-07-21T07:08:32.684Z,40.70
2018-07-21T07:11:01.455Z,40.90
2018-07-21T07:13:29.804Z,40.90
2018-07-21T07:15:58.248Z,40.90
2018-07-21T07:18:26.802Z,40.80
2018-07-21T07:20:55.116Z,40.80
2018-07-21T07:23:23.427Z,40.50
2018-07-21T07:25:51.834Z,40.30
2018-07-21T07:28:20.219Z,40.50
2018-07-21T07:30:50.654Z,40.20
2018-07-21T07:33:18.964Z,40.30
2018-07-21T07:35:47.323Z,40.40
2018-07-21T07:38:15.657Z,40.30
2018-07-21T07:40:44.032Z,40.20
2018-07-21T07:43:12.459Z,40.00
2018-07-21T07:50:37.193Z,40.40
2018-07-21T07:53:05.786Z,40.10
2018-07-21T07:55:34.510Z,40.10
2018-07-21T07:58:04.367Z,39.60
2018-07-21T08:00:33.183Z,39.70
2018-07-21T08:03:02.443Z,39.50
2018-07-21T08:05:31.167Z,39.30
2018-07-21T08:07:59.555Z,39.20
2018-07-21T08:10:28.155Z,39.20
2018-07-21T08:12:56.525Z,39.40
2018-07-21T08:15:24.897Z,39.60
2018-07-21T08:17:53.247Z,39.50
2018-07-21T08:20:21.775Z,39.60
2018-07-21T08:22:50.272Z,39.50
2018-07-21T08:25:18.624Z,40.00
2018-07-21T08:27:46.914Z,39.90
2018-07-21T08:30:15.288Z,39.80
2018-07-21T08:32:44.017Z,39.70
2018-07-21T08:35:12.411Z,39.70
2018-07-21T08:37:40.899Z,40.00
2018-07-21T08:40:16.011Z,40.10
2018-07-21T08:42:44.431Z,40.30
2018-07-21T08:45:12.840Z,40.70
2018-07-21T08:47:41.249Z,40.80
2018-07-21T08:50:09.594Z,40.50
2018-07-21T08:52:37.918Z,40.90
2018-07-21T08:55:06.400Z,41.30
2018-07-21T08:57:34.929Z,41.40
2018-07-21T09:00:03.460Z,41.70
2018-07-21T09:02:31.928Z,42.40
2018-07-21T09:05:01.543Z,43.10
2018-07-21T09:07:29.932Z,43.00
2018-07-21T09:09:58.290Z,43.50
2018-07-21T09:12:26.642Z,43.80
2018-07-21T09:14:55.332Z,44.00
2018-07-21T09:17:23.663Z,44.30
2018-07-21T09:19:52.541Z,44.50
2018-07-21T09:22:20.909Z,44.40
2018-07-21T09:24:49.639Z,44.50
2018-07-21T09:27:17.946Z,44.70
2018-07-21T09:29:46.278Z,44.90
2018-07-21T09:32:14.874Z,45.40
2018-07-21T09:34:43.938Z,45.50
2018-07-21T09:39:47.049Z,45.20
2018-07-21T09:42:15.430Z,45.40
2018-07-21T09:44:43.748Z,45.10
2018-07-21T09:47:12.097Z,44.80
2018-07-21T09:49:40.681Z,45.00
2018-07-21T09:52:09.092Z,44.80
2018-07-21T09:54:37.633Z,45.30
2018-07-21T09:57:06.055Z,45.30
2018-07-21T09:59:34.469Z,45.80
2018-07-21T10:02:03.398Z,45.30
2018-07-21T10:04:32.041Z,45.40
2018-07-21T10:07:00.628Z,45.80
2018-07-21T10:09:29.272Z,45.80
2018-07-21T10:11:57.807Z,46.40
2018-07-21T10:14:26.341Z,46.20
2018-07-21T10:16:54.953Z,46.60
2018-07-21T10:19:23.435Z,46.60
2018-07-21T10:21:51.928Z,46.50
2018-07-21T10:24:25.847Z,46.60
2018-07-21T10:27:15.187Z,47.00
2018-07-21T10:29:44.059Z,47.20
2018-07-21T10:32:12.896Z,47.50
2018-07-21T10:34:42.890Z,47.60
2018-07-21T10:37:11.259Z,47.50
2018-07-21T10:39:39.808Z,47.40
2018-07-21T10:42:08.855Z,47.70
2018-07-21T10:44:37.154Z,47.90
2018-07-21T10:47:05.522Z,47.80
2018-07-21T10:49:33.991Z,47.80
2018-07-21T10:52:02.318Z,47.60
2018-07-21T10:54:30.925Z,47.80
2018-07-21T10:56:59.261Z,48.00
2018-07-21T10:59:27.525Z,48.10
2018-07-21T11:01:55.834Z,48.00
2018-07-21T11:04:24.376Z,48.20
2018-07-21T11:09:20.796Z,48.50
2018-07-21T11:11:49.231Z,48.20
2018-07-21T11:14:17.808Z,48.20
2018-07-21T11:16:46.125Z,48.30
2018-07-21T11:19:14.671Z,48.70
2018-07-21T11:21:43.056Z,48.70
2018-07-21T11:24:11.387Z,48.30
2018-07-21T11:26:39.816Z,48.60
2018-07-21T11:29:08.199Z,48.40
2018-07-21T11:31:36.660Z,48.70
2018-07-21T11:34:04.975Z,48.50
2018-07-21T11:36:33.686Z,48.20
2018-07-21T11:39:01.984Z,48.30
2018-07-21T11:41:30.311Z,48.40
2018-07-21T11:43:58.651Z,48.80
2018-07-21T11:46:27.077Z,48.50
2018-07-21T11:51:23.648Z,48.70
2018-07-21T11:53:52.046Z,48.70
2018-07-21T11:56:20.570Z,48.50
2018-07-21T11:58:48.855Z,49.20
2018-07-21T12:01:17.451Z,48.60
2018-07-21T12:03:45.946Z,48.70
2018-07-21T12:06:14.237Z,49.00
2018-07-21T12:08:42.561Z,48.10
2018-07-21T12:11:10.834Z,48.10
2018-07-21T12:13:39.243Z,48.00
2018-07-21T12:16:07.686Z,48.10
2018-07-21T12:18:36.097Z,47.90
2018-07-21T12:21:04.414Z,47.90
2018-07-21T12:23:32.855Z,48.00
2018-07-21T12:26:01.173Z,47.90
2018-07-21T12:28:29.790Z,48.20
2018-07-21T12:30:58.214Z,48.50
2018-07-21T12:33:26.539Z,47.70
2018-07-21T12:35:54.994Z,47.70
2018-07-21T12:38:23.373Z,47.90
2018-07-21T12:40:51.729Z,47.90
2018-07-21T12:43:20.277Z,47.60
2018-07-21T12:45:48.691Z,47.40
2018-07-21T12:48:17.032Z,47.40
2018-07-21T12:50:45.443Z,47.10
2018-07-21T12:53:13.982Z,46.90
2018-07-21T12:55:42.559Z,47.00
2018-07-21T12:58:11.070Z,47.00
2018-07-21T13:00:39.517Z,47.20
2018-07-21T13:03:08.343Z,46.80
2018-07-21T13:05:36.767Z,46.60
2018-07-21T13:08:05.359Z,46.30
2018-07-21T13:13:01.968Z,45.70
2018-07-21T13:15:30.379Z,45.90
2018-07-21T13:17:58.798Z,45.70
2018-07-21T13:20:27.162Z,45.90
2018-07-21T13:22:55.502Z,45.70
2018-07-21T13:25:23.833Z,45.80
2018-07-21T13:27:52.192Z,45.20
2018-07-21T13:30:20.626Z,44.70
2018-07-21T13:32:49.019Z,44.30
2018-07-21T13:35:17.326Z,44.40
2018-07-21T13:37:45.711Z,44.30
2018-07-21T13:40:14.071Z,43.50
2018-07-21T13:42:42.407Z,42.60
2018-07-21T13:45:10.844Z,42.90
2018-07-21T13:47:39.259Z,41.60
2018-07-21T13:50:07.721Z,42.20
2018-07-21T13:52:36.129Z,41.70
2018-07-21T13:55:04.864Z,42.20
2018-07-21T13:57:33.414Z,42.20
2018-07-21T14:00:01.884Z,42.10
2018-07-21T14:02:30.184Z,42.20
2018-07-21T14:04:58.505Z,42.00
2018-07-21T14:07:27.281Z,41.60
2018-07-21T14:12:25.028Z,41.10
2018-07-21T14:14:54.715Z,41.00
2018-07-21T14:17:23.811Z,40.80
2018-07-21T14:19:53.095Z,40.30
2018-07-21T14:22:22.552Z,40.30
2018-07-21T14:24:51.959Z,40.20
2018-07-21T14:27:21.476Z,40.10
2018-07-21T14:29:51.328Z,40.10
2018-07-21T14:32:19.633Z,40.20
2018-07-21T14:34:48.467Z,40.60
2018-07-21T14:37:16.863Z,40.10
2018-07-21T14:39:45.212Z,40.20
2018-07-21T14:42:13.536Z,40.00
2018-07-21T14:44:42.062Z,40.00
2018-07-21T14:49:38.428Z,39.90
2018-07-21T14:52:06.797Z,39.80
2018-07-21T14:54:35.373Z,39.60
2018-07-21T14:59:31.959Z,39.60
2018-07-21T15:02:00.321Z,39.40
2018-07-21T15:04:28.861Z,39.20
2018-07-21T15:06:57.169Z,39.10
2018-07-21T15:09:25.470Z,39.00
2018-07-21T15:11:54.109Z,39.00
2018-07-21T15:14:22.449Z,39.00
2018-07-21T15:16:50.728Z,39.60
2018-07-21T15:19:19.051Z,39.10
2018-07-21T15:21:47.403Z,39.30
2018-07-21T15:24:15.765Z,39.10
2018-07-21T15:26:44.275Z,39.10
2018-07-21T15:29:13.700Z,39.30
2018-07-21T15:31:43.234Z,39.60
2018-07-21T15:34:11.767Z,39.80
2018-07-21T15:36:40.242Z,40.10
2018-07-21T15:39:13.378Z,40.20
2018-07-21T15:41:42.129Z,40.40
2018-07-21T15:44:10.685Z,40.40
2018-07-21T15:46:41.398Z,40.50
2018-07-21T15:49:09.848Z,40.50
2018-07-21T15:51:38.418Z,40.50
2018-07-21T15:54:09.230Z,40.60
2018-07-21T15:56:37.905Z,40.60
2018-07-21T15:59:06.636Z,40.80
2018-07-21T16:01:35.244Z,41.00
2018-07-21T16:04:03.960Z,41.70
2018-07-21T16:06:32.571Z,42.40
2018-07-21T16:09:01.308Z,42.30
2018-07-21T16:11:30.272Z,42.00
2018-07-21T16:13:58.619Z,42.20
2018-07-21T16:16:27.047Z,42.20
2018-07-21T16:18:55.512Z,42.50
2018-07-21T16:21:25.236Z,42.60
2018-07-21T16:23:53.571Z,42.60
2018-07-21T16:26:22.597Z,42.60
2018-07-21T16:28:51.446Z,42.90
2018-07-21T16:31:19.894Z,42.80
2018-07-21T16:33:48.410Z,42.90
2018-07-21T16:36:17.066Z,43.20
2018-07-21T16:38:45.911Z,43.10
2018-07-21T16:41:14.371Z,43.20
2018-07-21T16:43:42.803Z,43.50
2018-07-21T16:46:11.211Z,43.50
2018-07-21T16:48:39.746Z,43.60
2018-07-21T16:51:08.346Z,43.70
2018-07-21T16:53:36.783Z,43.70
2018-07-21T16:56:05.103Z,43.70
2018-07-21T17:01:01.824Z,43.70
2018-07-21T17:03:30.129Z,43.50
2018-07-21T17:05:58.554Z,43.40
2018-07-21T17:08:26.872Z,43.40
2018-07-21T17:10:55.364Z,43.30
2018-07-21T17:13:23.799Z,43.30
2018-07-21T17:15:52.260Z,43.10
2018-07-21T17:18:23.543Z,43.10
2018-07-21T17:20:52.812Z,43.00
2018-07-21T17:23:21.155Z,43.10
2018-07-21T17:25:49.549Z,43.30
2018-07-21T17:28:18.778Z,43.30
2018-07-21T17:30:47.048Z,43.20
2018-07-21T17:33:16.375Z,43.30
2018-07-21T17:35:45.208Z,43.20
2018-07-21T17:40:43.195Z,42.80
2018-07-21T17:43:11.560Z,42.70
2018-07-21T17:45:39.903Z,42.20
2018-07-21T17:48:09.869Z,42.30
2018-07-21T17:50:38.250Z,42.30
2018-07-21T17:53:06.675Z,42.60
2018-07-21T17:55:35.079Z,43.00
2018-07-21T17:58:03.654Z,43.10
2018-07-21T18:00:32.718Z,43.50
2018-07-21T18:03:01.084Z,44.10
2018-07-21T18:05:29.593Z,44.10
2018-07-21T18:09:01.160Z,44.10
2018-07-21T18:11:29.599Z,44.40
2018-07-21T18:13:58.255Z,44.50
2018-07-21T18:16:26.952Z,44.70
2018-07-21T18:18:55.371Z,45.20
2018-07-21T18:21:23.735Z,45.10
2018-07-21T18:23:52.848Z,45.60
2018-07-21T18:26:21.621Z,45.50
2018-07-21T18:28:49.996Z,45.20
2018-07-21T18:31:18.347Z,45.60
2018-07-21T18:36:15.091Z,46.10
2018-07-21T18:38:44.886Z,46.20
2018-07-21T18:41:13.259Z,46.10
2018-07-21T18:43:42.928Z,46.30
2018-07-21T18:46:11.234Z,46.60
2018-07-21T18:48:39.682Z,46.60
2018-07-21T18:51:08.203Z,46.80
2018-07-21T18:53:37.634Z,46.60
2018-07-21T18:56:06.317Z,46.70
2018-07-21T18:58:34.877Z,47.10
2018-07-21T19:02:07.736Z,47.20
2018-07-21T19:04:36.970Z,47.00
2018-07-21T19:07:05.642Z,47.20
2018-07-21T19:09:34.313Z,47.50
2018-07-21T19:12:08.072Z,47.30
2018-07-21T19:14:36.516Z,47.70
2018-07-21T19:17:04.927Z,47.70
2018-07-21T19:19:38.698Z,47.50
2018-07-21T19:22:09.483Z,47.70
2018-07-21T19:24:37.807Z,47.50
2018-07-21T19:27:11.799Z,47.50
2018-07-21T19:29:40.287Z,47.40
2018-07-21T19:32:14.183Z,47.40
2018-07-21T19:37:14.913Z,47.30
2018-07-21T19:39:43.557Z,47.00
2018-07-21T19:42:12.019Z,46.80
2018-07-21T19:44:40.375Z,46.70
2018-07-21T19:47:08.817Z,46.60
2018-07-21T19:49:39.623Z,46.50
2018-07-21T19:52:08.070Z,46.40
2018-07-21T19:54:36.460Z,46.40
2018-07-21T19:57:04.823Z,46.30
2018-07-21T19:59:33.154Z,46.10
2018-07-21T20:02:01.871Z,45.90
2018-07-21T20:06:58.769Z,45.90
2018-07-21T20:09:27.779Z,45.70
2018-07-21T20:11:56.840Z,45.60
2018-07-21T20:14:25.433Z,45.70
2018-07-21T20:16:53.967Z,45.80
2018-07-21T20:19:22.275Z,45.90
2018-07-21T20:21:50.665Z,45.90
2018-07-21T20:24:19.140Z,46.00
2018-07-21T20:26:47.467Z,46.00
2018-07-21T20:29:16.832Z,46.20
2018-07-21T20:31:45.965Z,46.10
2018-07-21T20:34:15.289Z,46.30
2018-07-21T20:36:44.786Z,46.50
2018-07-21T20:39:13.817Z,46.60
2018-07-21T20:41:44.262Z,46.80
2018-07-21T20:44:13.146Z,46.90
2018-07-21T20:46:41.568Z,47.00
2018-07-21T20:49:09.956Z,47.30
2018-07-21T20:51:38.523Z,47.50
2018-07-21T20:54:07.099Z,47.50
2018-07-21T20:56:35.415Z,47.50
2018-07-21T21:01:31.799Z,47.80
2018-07-21T21:04:00.189Z,47.80
2018-07-21T21:06:28.697Z,47.90
2018-07-21T21:08:57.132Z,48.10
2018-07-21T21:11:25.479Z,48.10
2018-07-21T21:13:53.830Z,48.30
2018-07-21T21:16:22.355Z,48.50
2018-07-21T21:18:50.757Z,48.60
2018-07-21T21:21:19.143Z,48.90
2018-07-21T21:23:47.730Z,48.70
2018-07-21T21:26:16.274Z,48.90
2018-07-21T21:28:44.699Z,49.00
2018-07-21T21:31:13.126Z,49.10
2018-07-21T21:33:41.628Z,49.30
2018-07-21T21:36:10.060Z,49.40
2018-07-21T21:38:38.418Z,49.30
2018-07-21T21:41:06.883Z,49.40
2018-07-21T21:43:35.456Z,49.60
2018-07-21T21:46:03.962Z,49.50
2018-07-21T21:51:00.512Z,49.80
2018-07-21T21:53:28.981Z,49.80
2018-07-21T21:55:57.423Z,49.90
2018-07-21T21:58:25.778Z,49.90
2018-07-21T22:00:59.935Z,49.90
2018-07-21T22:03:30.383Z,49.80
2018-07-21T22:05:59.451Z,49.80
2018-07-21T22:08:28.083Z,49.70
2018-07-21T22:10:56.480Z,49.60
2018-07-21T22:13:25.363Z,49.60
2018-07-21T22:15:53.679Z,49.60
2018-07-21T22:18:22.175Z,49.50
2018-07-21T22:20:50.543Z,49.60
2018-07-21T22:23:18.912Z,49.70
2018-07-21T22:25:47.236Z,49.60
2018-07-21T22:28:15.665Z,49.80
2018-07-21T22:30:43.961Z,50.00
2018-07-21T22:33:12.382Z,49.90
2018-07-21T22:35:40.995Z,50.00
2018-07-21T22:38:09.401Z,50.00
2018-07-21T22:40:37.718Z,49.90
2018-07-21T22:43:05.989Z,49.70
2018-07-21T22:45:34.328Z,49.90
2018-07-21T22:48:02.631Z,49.80
2018-07-21T22:50:30.907Z,49.90
2018-07-21T22:52:59.315Z,49.80
2018-07-21T22:55:27.639Z,49.90
2018-07-21T22:57:55.943Z,49.90
2018-07-21T23:00:24.266Z,49.90
2018-07-21T23:02:52.523Z,50.00
2018-07-21T23:05:20.820Z,50.00
2018-07-21T23:07:49.132Z,50.10
2018-07-21T23:10:17.498Z,50.50
2018-07-21T23:12:45.846Z,50.00
2018-07-21T23:15:14.316Z,50.00
2018-07-21T23:17:42.682Z,50.10
2018-07-21T23:20:11.340Z,50.20
2018-07-21T23:22:39.716Z,50.30
2018-07-21T23:25:08.028Z,50.40
2018-07-21T23:27:36.615Z,50.50
2018-07-21T23:30:05.507Z,50.50
2018-07-21T23:32:33.875Z,50.60
2018-07-21T23:35:02.283Z,50.60
2018-07-21T23:37:30.944Z,50.70
2018-07-21T23:39:59.477Z,50.80
2018-07-21T23:42:27.795Z,50.80
2018-07-21T23:44:56.250Z,50.90
2018-07-21T23:47:24.723Z,50.90
2018-07-21T23:49:53.087Z,51.00
2018-07-21T23:52:23.251Z,51.10
2018-07-21T23:54:51.922Z,51.30
2018-07-21T23:57:20.391Z,51.30
2018-07-21T23:59:48.695Z,51.50
